sensor_id;sensor_type;location;lat;lon;timestamp;pressure;altitude;pressure_sealevel;temperature;humidity
10806;BME280;5455;53.224;6.000;2024-02-26T00:01:31;100289.63;;;3.94;100.00
10806;BME280;5455;53.224;6.000;2024-02-26T00:03:59;100297.16;;;3.97;100.00
10806;BME280;5455;53.224;6.000;2024-02-26T00:06:30;100294.94;;;3.99;100.00
10806;BME280;5455;53.224;6.000;2024-02-26T00:08:57;100299.88;;;3.97;100.00
10806;BME280;5455;53.224;6.000;2024-02-26T00:11:24;100292.19;;;3.99;100.00
10806;BME280;5455;53.224;6.000;2024-02-26T00:13:51;100297.31;;;4.01;100.00
10806;BME280;5455;53.224;6.000;2024-02-26T00:16:18;100300.19;;;4.04;100.00
10806;BME280;5455;53.224;6.000;2024-02-26T00:18:46;100299.38;;;4.04;100.00
10806;BME280;5455;53.224;6.000;2024-02-26T00:21:16;100299.53;;;4.07;100.00
10806;BME280;5455;53.224;6.000;2024-02-26T00:23:43;100291.34;;;4.07;100.00
10806;BME280;5455;53.224;6.000;2024-02-26T00:26:10;100299.38;;;4.04;100.00
10806;BME280;5455;53.224;6.000;2024-02-26T00:28:37;100301.78;;;4.05;100.00
10806;BME280;5455;53.224;6.000;2024-02-26T00:31:04;100303.38;;;4.06;100.00
10806;BME280;5455;53.224;6.000;2024-02-26T00:33:31;100301.91;;;4.09;100.00
10806;BME280;5455;53.224;6.000;2024-02-26T00:35:59;100308.16;;;4.09;100.00
10806;BME280;5455;53.224;6.000;2024-02-26T00:38:25;100307.06;;;4.10;100.00
10806;BME280;5455;53.224;6.000;2024-02-26T00:40:52;100304.13;;;4.15;100.00
10806;BME280;5455;53.224;6.000;2024-02-26T00:43:20;100303.31;;;4.15;100.00
10806;BME280;5455;53.224;6.000;2024-02-26T00:45:46;100307.34;;;4.17;100.00
10806;BME280;5455;53.224;6.000;2024-02-26T00:48:13;100307.00;;;4.19;100.00
10806;BME280;5455;53.224;6.000;2024-02-26T00:50:41;100313.56;;;4.18;100.00
10806;BME280;5455;53.224;6.000;2024-02-26T00:53:09;100317.09;;;4.18;100.00
10806;BME280;5455;53.224;6.000;2024-02-26T00:55:35;100315.19;;;4.19;100.00
10806;BME280;5455;53.224;6.000;2024-02-26T00:58:03;100313.25;;;4.19;100.00
10806;BME280;5455;53.224;6.000;2024-02-26T01:00:29;100315.34;;;4.22;100.00
10806;BME280;5455;53.224;6.000;2024-02-26T01:02:57;100315.00;;;4.24;100.00
10806;BME280;5455;53.224;6.000;2024-02-26T01:05:24;100315.34;;;4.22;100.00
10806;BME280;5455;53.224;6.000;2024-02-26T01:07:52;100324.97;;;4.20;100.00
10806;BME280;5455;53.224;6.000;2024-02-26T01:10:19;100329.47;;;4.16;100.00
10806;BME280;5455;53.224;6.000;2024-02-26T01:12:46;100326.44;;;4.17;100.00
10806;BME280;5455;53.224;6.000;2024-02-26T01:15:14;100321.75;;;4.18;100.00
10806;BME280;5455;53.224;6.000;2024-02-26T01:17:41;100332.22;;;4.16;100.00
10806;BME280;5455;53.224;6.000;2024-02-26T01:20:09;100323.22;;;4.15;100.00
10806;BME280;5455;53.224;6.000;2024-02-26T01:22:37;100326.44;;;4.17;100.00
10806;BME280;5455;53.224;6.000;2024-02-26T01:25:04;100328.69;;;4.15;100.00
10806;BME280;5455;53.224;6.000;2024-02-26T01:27:31;100330.94;;;4.13;100.00
10806;BME280;5455;53.224;6.000;2024-02-26T01:29:58;100329.34;;;4.12;100.00
10806;BME280;5455;53.224;6.000;2024-02-26T01:32:25;100325.34;;;4.10;100.00
10806;BME280;5455;53.224;6.000;2024-02-26T01:34:52;100333.38;;;4.06;100.00
10806;BME280;5455;53.224;6.000;2024-02-26T01:37:19;100342.22;;;4.03;100.00
10806;BME280;5455;53.224;6.000;2024-02-26T01:39:46;100337.25;;;3.97;100.00
10806;BME280;5455;53.224;6.000;2024-02-26T01:42:13;100341.28;;;3.99;100.00
10806;BME280;5455;53.224;6.000;2024-02-26T01:44:40;100333.72;;;4.05;100.00
10806;BME280;5455;53.224;6.000;2024-02-26T01:47:07;100338.53;;;4.08;100.00
10806;BME280;5455;53.224;6.000;2024-02-26T01:49:36;100343.81;;;4.04;100.00
10806;BME280;5455;53.224;6.000;2024-02-26T01:52:04;100349.31;;;3.96;100.00
10806;BME280;5455;53.224;6.000;2024-02-26T01:54:35;100352.34;;;3.94;100.00
10806;BME280;5455;53.224;6.000;2024-02-26T01:57:05;100354.94;;;3.90;100.00
10806;BME280;5455;53.224;6.000;2024-02-26T01:59:34;100351.44;;;3.90;100.00
10806;BME280;5455;53.224;6.000;2024-02-26T02:02:03;100355.75;;;3.91;100.00
10806;BME280;5455;53.224;6.000;2024-02-26T02:04:32;100361.84;;;3.88;100.00
10806;BME280;5455;53.224;6.000;2024-02-26T02:06:59;100357.81;;;3.94;100.00
10806;BME280;5455;53.224;6.000;2024-02-26T02:09:27;100350.44;;;3.95;100.00
10806;BME280;5455;53.224;6.000;2024-02-26T02:11:54;100356.84;;;3.99;100.00
10806;BME280;5455;53.224;6.000;2024-02-26T02:14:24;100357.00;;;4.02;100.00
10806;BME280;5455;53.224;6.000;2024-02-26T02:16:52;100357.78;;;4.03;100.00
10806;BME280;5455;53.224;6.000;2024-02-26T02:19:18;100355.19;;;4.06;100.00
10806;BME280;5455;53.224;6.000;2024-02-26T02:21:46;100359.19;;;4.09;100.00
10806;BME280;5455;53.224;6.000;2024-02-26T02:24:12;100355.03;;;4.11;100.00
10806;BME280;5455;53.224;6.000;2024-02-26T02:26:39;100355.81;;;4.12;100.00
10806;BME280;5455;53.224;6.000;2024-02-26T02:29:07;100358.88;;;4.10;100.00
10806;BME280;5455;53.224;6.000;2024-02-26T02:31:34;100363.69;;;4.13;100.00
10806;BME280;5455;53.224;6.000;2024-02-26T02:34:01;100353.22;;;4.15;100.00
10806;BME280;5455;53.224;6.000;2024-02-26T02:36:28;100355.31;;;4.18;100.00
10806;BME280;5455;53.224;6.000;2024-02-26T02:38:55;100359.19;;;4.17;100.00
10806;BME280;5455;53.224;6.000;2024-02-26T02:41:22;100360.34;;;4.08;100.00
10806;BME280;5455;53.224;6.000;2024-02-26T02:43:49;100377.63;;;4.12;100.00
10806;BME280;5455;53.224;6.000;2024-02-26T02:46:16;100383.88;;;4.12;100.00
10806;BME280;5455;53.224;6.000;2024-02-26T02:48:43;100381.34;;;4.07;100.00
10806;BME280;5455;53.224;6.000;2024-02-26T02:51:11;100379.75;;;4.06;100.00
10806;BME280;5455;53.224;6.000;2024-02-26T02:53:38;100383.28;;;4.07;100.00
10806;BME280;5455;53.224;6.000;2024-02-26T02:56:06;100381.19;;;4.04;100.00
10806;BME280;5455;53.224;6.000;2024-02-26T02:58:33;100382.66;;;4.01;100.00
10806;BME280;5455;53.224;6.000;2024-02-26T03:01:00;100388.13;;;4.01;100.00
10806;BME280;5455;53.224;6.000;2024-02-26T03:03:27;100393.88;;;4.00;100.00
10806;BME280;5455;53.224;6.000;2024-02-26T03:05:56;100394.22;;;3.98;100.00
10806;BME280;5455;53.224;6.000;2024-02-26T03:08:23;100397.75;;;3.99;100.00
10806;BME280;5455;53.224;6.000;2024-02-26T03:10:52;100391.66;;;4.02;100.00
10806;BME280;5455;53.224;6.000;2024-02-26T03:13:19;100395.97;;;4.03;100.00
10806;BME280;5455;53.224;6.000;2024-02-26T03:15:46;100398.06;;;3.97;100.00
10806;BME280;5455;53.224;6.000;2024-02-26T03:18:13;100401.28;;;3.99;100.00
10806;BME280;5455;53.224;6.000;2024-02-26T03:20:41;100403.97;;;4.08;100.00
10806;BME280;5455;53.224;6.000;2024-02-26T03:23:08;100406.22;;;4.06;100.00
10806;BME280;5455;53.224;6.000;2024-02-26T03:25:39;100411.03;;;4.09;100.00
10806;BME280;5455;53.224;6.000;2024-02-26T03:28:06;100411.03;;;4.09;100.00
10806;BME280;5455;53.224;6.000;2024-02-26T03:30:33;100414.25;;;4.11;100.00
10806;BME280;5455;53.224;6.000;2024-02-26T03:33:01;100418.09;;;4.10;100.00
10806;BME280;5455;53.224;6.000;2024-02-26T03:35:28;100414.25;;;4.11;100.00
10806;BME280;5455;53.224;6.000;2024-02-26T03:37:55;100420.31;;;4.16;100.00
10806;BME280;5455;53.224;6.000;2024-02-26T03:40:22;100426.09;;;4.15;100.00
10806;BME280;5455;53.224;6.000;2024-02-26T03:42:49;100424.50;;;4.14;100.00
10806;BME280;5455;53.224;6.000;2024-02-26T03:45:16;100424.50;;;4.14;100.00
10806;BME280;5455;53.224;6.000;2024-02-26T03:47:43;100428.03;;;4.14;100.00
10806;BME280;5455;53.224;6.000;2024-02-26T03:50:11;100424.16;;;4.15;100.00
10806;BME280;5455;53.224;6.000;2024-02-26T03:52:38;100429.81;;;4.10;100.00
10806;BME280;5455;53.224;6.000;2024-02-26T03:55:05;100442.16;;;4.08;100.00
10806;BME280;5455;53.224;6.000;2024-02-26T03:57:32;100438.78;;;4.11;100.00
10806;BME280;5455;53.224;6.000;2024-02-26T03:59:59;100446.16;;;4.10;100.00
10806;BME280;5455;53.224;6.000;2024-02-26T04:02:26;100450.97;;;4.13;100.00
10806;BME280;5455;53.224;6.000;2024-02-26T04:04:53;100443.91;;;4.12;100.00
10806;BME280;5455;53.224;6.000;2024-02-26T04:07:20;100452.59;;;4.14;100.00
10806;BME280;5455;53.224;6.000;2024-02-26T04:09:47;100458.19;;;4.09;100.00
10806;BME280;5455;53.224;6.000;2024-02-26T04:12:15;100461.41;;;4.11;100.00
10806;BME280;5455;53.224;6.000;2024-02-26T04:14:43;100468.31;;;4.17;100.00
10806;BME280;5455;53.224;6.000;2024-02-26T04:17:11;100466.03;;;4.19;100.00
10806;BME280;5455;53.224;6.000;2024-02-26T04:19:38;100477.25;;;4.26;100.00
10806;BME280;5455;53.224;6.000;2024-02-26T04:22:05;100483.50;;;4.27;100.00
10806;BME280;5455;53.224;6.000;2024-02-26T04:24:32;100480.13;;;4.30;100.00
10806;BME280;5455;53.224;6.000;2024-02-26T04:26:59;100486.72;;;4.29;100.00
10806;BME280;5455;53.224;6.000;2024-02-26T04:29:26;100482.06;;;4.29;100.00
10806;BME280;5455;53.224;6.000;2024-02-26T04:31:53;100481.06;;;4.34;100.00
10806;BME280;5455;53.224;6.000;2024-02-26T04:34:20;100476.44;;;4.34;100.00
10806;BME280;5455;53.224;6.000;2024-02-26T04:36:47;100484.44;;;4.39;100.00
10806;BME280;5455;53.224;6.000;2024-02-26T04:39:14;100492.31;;;4.41;100.00
10806;BME280;5455;53.224;6.000;2024-02-26T04:41:42;100495.03;;;4.41;100.00
10806;BME280;5455;53.224;6.000;2024-02-26T04:44:09;100491.97;;;4.42;100.00
10806;BME280;5455;53.224;6.000;2024-02-26T04:46:36;100490.66;;;4.49;100.00
10806;BME280;5455;53.224;6.000;2024-02-26T04:49:03;100494.00;;;4.54;100.00
10806;BME280;5455;53.224;6.000;2024-02-26T04:51:30;100500.25;;;4.55;100.00
10806;BME280;5455;53.224;6.000;2024-02-26T04:53:57;100507.00;;;4.57;100.00
10806;BME280;5455;53.224;6.000;2024-02-26T04:56:24;100508.25;;;4.60;100.00
10806;BME280;5455;53.224;6.000;2024-02-26T04:58:52;100512.91;;;4.68;100.00
10806;BME280;5455;53.224;6.000;2024-02-26T05:01:19;100511.00;;;4.68;100.00
10806;BME280;5455;53.224;6.000;2024-02-26T05:03:46;100506.97;;;4.66;100.00
10806;BME280;5455;53.224;6.000;2024-02-26T05:06:13;100504.38;;;4.69;100.00
10806;BME280;5455;53.224;6.000;2024-02-26T05:08:40;100506.94;;;4.74;100.00
10806;BME280;5455;53.224;6.000;2024-02-26T05:11:08;100517.88;;;4.74;100.00
10806;BME280;5455;53.224;6.000;2024-02-26T05:13:34;100513.69;;;4.77;100.00
10806;BME280;5455;53.224;6.000;2024-02-26T05:16:01;100517.81;;;4.83;100.00
10806;BME280;5455;53.224;6.000;2024-02-26T05:18:28;100517.81;;;4.83;100.00
10806;BME280;5455;53.224;6.000;2024-02-26T05:20:56;100523.28;;;4.83;100.00
10806;BME280;5455;53.224;6.000;2024-02-26T05:23:23;100521.34;;;4.83;100.00
10806;BME280;5455;53.224;6.000;2024-02-26T05:25:50;100528.25;;;4.81;100.00
10806;BME280;5455;53.224;6.000;2024-02-26T05:28:16;100528.13;;;4.77;100.00
10806;BME280;5455;53.224;6.000;2024-02-26T05:30:47;100537.28;;;4.73;100.00
10806;BME280;5455;53.224;6.000;2024-02-26T05:33:14;100538.75;;;4.70;100.00
10806;BME280;5455;53.224;6.000;2024-02-26T05:35:44;100534.25;;;4.66;100.00
10806;BME280;5455;53.224;6.000;2024-02-26T05:38:12;100547.78;;;4.62;100.00
10806;BME280;5455;53.224;6.000;2024-02-26T05:40:39;100552.09;;;4.63;100.00
10806;BME280;5455;53.224;6.000;2024-02-26T05:43:06;100554.84;;;4.63;100.00
10806;BME280;5455;53.224;6.000;2024-02-26T05:45:33;100557.91;;;4.62;100.00
10806;BME280;5455;53.224;6.000;2024-02-26T05:48:00;100560.47;;;4.58;100.00
10806;BME280;5455;53.224;6.000;2024-02-26T05:50:27;100561.28;;;4.59;100.00
10806;BME280;5455;53.224;6.000;2024-02-26T05:52:54;100556.94;;;4.58;100.00
10806;BME280;5455;53.224;6.000;2024-02-26T05:55:21;100561.44;;;4.54;100.00
10806;BME280;5455;53.224;6.000;2024-02-26T05:57:48;100571.25;;;4.55;100.00
10806;BME280;5455;53.224;6.000;2024-02-26T06:00:16;100578.31;;;4.56;100.00
10806;BME280;5455;53.224;6.000;2024-02-26T06:02:43;100575.91;;;4.54;100.00
10806;BME280;5455;53.224;6.000;2024-02-26T06:05:11;100575.44;;;4.52;100.00
10806;BME280;5455;53.224;6.000;2024-02-26T06:07:38;100580.41;;;4.59;100.00
10806;BME280;5455;53.224;6.000;2024-02-26T06:10:05;100583.59;;;4.61;100.00
10806;BME280;5455;53.224;6.000;2024-02-26T06:12:35;100583.94;;;4.59;100.00
10806;BME280;5455;53.224;6.000;2024-02-26T06:15:03;100595.28;;;4.70;100.00
10806;BME280;5455;53.224;6.000;2024-02-26T06:17:31;100593.19;;;4.75;100.00
10806;BME280;5455;53.224;6.000;2024-02-26T06:19:58;100590.59;;;4.79;100.00
10806;BME280;5455;53.224;6.000;2024-02-26T06:22:27;100600.41;;;4.80;100.00
10806;BME280;5455;53.224;6.000;2024-02-26T06:24:54;100611.63;;;4.87;100.00
10806;BME280;5455;53.224;6.000;2024-02-26T06:27:21;100612.91;;;4.89;100.00
10806;BME280;5455;53.224;6.000;2024-02-26T06:29:48;100618.38;;;4.89;100.00
10806;BME280;5455;53.224;6.000;2024-02-26T06:32:15;100626.22;;;4.91;100.00
10806;BME280;5455;53.224;6.000;2024-02-26T06:34:42;100613.53;;;4.95;100.00
10806;BME280;5455;53.224;6.000;2024-02-26T06:37:09;100622.19;;;4.97;100.00
10806;BME280;5455;53.224;6.000;2024-02-26T06:39:36;100612.22;;;5.01;100.00
10806;BME280;5455;53.224;6.000;2024-02-26T06:42:05;100625.88;;;5.01;100.00
10806;BME280;5455;53.224;6.000;2024-02-26T06:44:33;100633.75;;;5.03;100.00
10806;BME280;5455;53.224;6.000;2024-02-26T06:47:00;100631.97;;;5.07;100.00
10806;BME280;5455;53.224;6.000;2024-02-26T06:49:28;100638.25;;;5.07;100.00
10806;BME280;5455;53.224;6.000;2024-02-26T06:51:56;100627.31;;;5.07;100.00
10806;BME280;5455;53.224;6.000;2024-02-26T06:54:23;100634.53;;;5.03;100.00
10806;BME280;5455;53.224;6.000;2024-02-26T06:56:50;100636.81;;;5.01;100.00
10806;BME280;5455;53.224;6.000;2024-02-26T06:59:17;100640.47;;;5.05;100.00
10806;BME280;5455;53.224;6.000;2024-02-26T07:01:44;100638.09;;;5.04;100.00
10806;BME280;5455;53.224;6.000;2024-02-26T07:04:11;100644.03;;;4.97;100.00
10806;BME280;5455;53.224;6.000;2024-02-26T07:06:38;100648.56;;;4.93;100.00
10806;BME280;5455;53.224;6.000;2024-02-26T07:09:05;100651.63;;;4.91;100.00
10806;BME280;5455;53.224;6.000;2024-02-26T07:11:32;100640.03;;;4.94;100.00
10806;BME280;5455;53.224;6.000;2024-02-26T07:13:59;100650.16;;;4.94;100.00
10806;BME280;5455;53.224;6.000;2024-02-26T07:16:27;100657.25;;;4.95;100.00
10806;BME280;5455;53.224;6.000;2024-02-26T07:18:54;100652.91;;;4.94;100.00
10806;BME280;5455;53.224;6.000;2024-02-26T07:21:21;100662.72;;;4.95;100.00
10806;BME280;5455;53.224;6.000;2024-02-26T07:23:48;100664.16;;;4.92;100.00
10806;BME280;5455;53.224;6.000;2024-02-26T07:26:15;100673.47;;;4.91;100.00
10806;BME280;5455;53.224;6.000;2024-02-26T07:28:45;100669.94;;;4.91;100.00
10806;BME280;5455;53.224;6.000;2024-02-26T07:31:12;100676.69;;;4.93;100.00
10806;BME280;5455;53.224;6.000;2024-02-26T07:33:40;100678.28;;;4.94;100.00
10806;BME280;5455;53.224;6.000;2024-02-26T07:36:07;100678.28;;;4.94;100.00
10806;BME280;5455;53.224;6.000;2024-02-26T07:38:34;100680.69;;;4.96;100.00
10806;BME280;5455;53.224;6.000;2024-02-26T07:41:09;100681.50;;;4.96;100.00
10806;BME280;5455;53.224;6.000;2024-02-26T07:43:37;100681.50;;;4.96;100.00
10806;BME280;5455;53.224;6.000;2024-02-26T07:46:03;100681.50;;;4.96;100.00
10806;BME280;5455;53.224;6.000;2024-02-26T07:48:30;100692.72;;;5.04;100.00
10806;BME280;5455;53.224;6.000;2024-02-26T07:50:58;100704.47;;;5.04;100.00
10806;BME280;5455;53.224;6.000;2024-02-26T07:53:26;100696.09;;;5.09;100.00
10806;BME280;5455;53.224;6.000;2024-02-26T07:55:53;100696.25;;;5.13;100.00
10806;BME280;5455;53.224;6.000;2024-02-26T07:58:20;100699.13;;;5.16;100.00
10806;BME280;5455;53.224;6.000;2024-02-26T08:00:47;100707.00;;;5.18;100.00
10806;BME280;5455;53.224;6.000;2024-02-26T08:03:16;100712.91;;;5.20;100.00
10806;BME280;5455;53.224;6.000;2024-02-26T08:05:43;100710.84;;;5.25;100.00
10806;BME280;5455;53.224;6.000;2024-02-26T08:08:12;100719.66;;;5.31;100.00
10806;BME280;5455;53.224;6.000;2024-02-26T08:10:39;100723.31;;;5.35;100.00
10806;BME280;5455;53.224;6.000;2024-02-26T08:13:06;100721.38;;;5.35;100.00
10806;BME280;5455;53.224;6.000;2024-02-26T08:15:33;100718.50;;;5.40;100.00
10806;BME280;5455;53.224;6.000;2024-02-26T08:18:06;100725.56;;;5.41;100.00
10806;BME280;5455;53.224;6.000;2024-02-26T08:20:34;100725.50;;;5.50;100.00
10806;BME280;5455;53.224;6.000;2024-02-26T08:23:01;100724.41;;;5.51;100.00
10806;BME280;5455;53.224;6.000;2024-02-26T08:25:28;100715.22;;;5.55;100.00
10806;BME280;5455;53.224;6.000;2024-02-26T08:27:55;100720.81;;;5.59;100.00
10806;BME280;5455;53.224;6.000;2024-02-26T08:30:22;100720.50;;;5.61;100.00
10806;BME280;5455;53.224;6.000;2024-02-26T08:32:49;100727.84;;;5.69;100.00
10806;BME280;5455;53.224;6.000;2024-02-26T08:35:19;100729.94;;;5.72;100.00
10806;BME280;5455;53.224;6.000;2024-02-26T08:37:47;100734.59;;;5.71;100.00
10806;BME280;5455;53.224;6.000;2024-02-26T08:40:14;100734.88;;;5.78;100.00
10806;BME280;5455;53.224;6.000;2024-02-26T08:42:42;100739.56;;;5.78;100.00
10806;BME280;5455;53.224;6.000;2024-02-26T08:45:09;100735.69;;;5.79;100.00
10806;BME280;5455;53.224;6.000;2024-02-26T08:47:36;100736.97;;;5.81;100.00
10806;BME280;5455;53.224;6.000;2024-02-26T08:50:04;100741.47;;;5.86;100.00
10806;BME280;5455;53.224;6.000;2024-02-26T08:52:32;100748.56;;;5.87;100.00
10806;BME280;5455;53.224;6.000;2024-02-26T08:54:59;100749.34;;;5.87;100.00
10806;BME280;5455;53.224;6.000;2024-02-26T08:57:26;100751.59;;;5.94;100.00
10806;BME280;5455;53.224;6.000;2024-02-26T08:59:54;100765.41;;;5.97;100.00
10806;BME280;5455;53.224;6.000;2024-02-26T09:02:21;100776.16;;;6.02;100.00
10806;BME280;5455;53.224;6.000;2024-02-26T09:04:48;100772.41;;;6.07;100.00
10806;BME280;5455;53.224;6.000;2024-02-26T09:07:15;100779.19;;;6.09;100.00
10806;BME280;5455;53.224;6.000;2024-02-26T09:09:43;100784.00;;;6.13;100.00
10806;BME280;5455;53.224;6.000;2024-02-26T09:12:10;100789.88;;;6.23;100.00
10806;BME280;5455;53.224;6.000;2024-02-26T09:14:37;100790.84;;;6.27;100.00
10806;BME280;5455;53.224;6.000;2024-02-26T09:17:04;100783.38;;;6.36;100.00
10806;BME280;5455;53.224;6.000;2024-02-26T09:19:32;100780.13;;;6.43;100.00
10806;BME280;5455;53.224;6.000;2024-02-26T09:21:59;100787.31;;;6.47;100.00
10806;BME280;5455;53.224;6.000;2024-02-26T09:24:26;100786.78;;;6.54;100.00
10806;BME280;5455;53.224;6.000;2024-02-26T09:26:53;100789.84;;;6.52;100.00
10806;BME280;5455;53.224;6.000;2024-02-26T09:29:20;100781.56;;;6.61;100.00
10806;BME280;5455;53.224;6.000;2024-02-26T09:31:47;100792.41;;;6.78;100.00
10806;BME280;5455;53.224;6.000;2024-02-26T09:34:14;100795.16;;;6.78;100.00
10806;BME280;5455;53.224;6.000;2024-02-26T09:36:43;100796.28;;;6.77;100.00
10806;BME280;5455;53.224;6.000;2024-02-26T09:39:09;100807.22;;;6.77;100.00
10806;BME280;5455;53.224;6.000;2024-02-26T09:41:39;100809.44;;;6.84;100.00
10806;BME280;5455;53.224;6.000;2024-02-26T09:44:06;100814.63;;;6.97;100.00
10806;BME280;5455;53.224;6.000;2024-02-26T09:46:33;100830.53;;;7.04;100.00
10806;BME280;5455;53.224;6.000;2024-02-26T09:49:00;100825.06;;;7.04;100.00
10806;BME280;5455;53.224;6.000;2024-02-26T09:51:28;100823.53;;;6.94;100.00
10806;BME280;5455;53.224;6.000;2024-02-26T09:53:59;100825.88;;;6.84;100.00
10806;BME280;5455;53.224;6.000;2024-02-26T09:56:29;100828.41;;;6.89;100.00
10806;BME280;5455;53.224;6.000;2024-02-26T09:58:57;100832.25;;;6.76;100.00
10806;BME280;5455;53.224;6.000;2024-02-26T10:01:25;100842.66;;;6.82;100.00
10806;BME280;5455;53.224;6.000;2024-02-26T10:03:55;100857.34;;;6.78;100.00
10806;BME280;5455;53.224;6.000;2024-02-26T10:06:26;100855.06;;;6.80;100.00
10806;BME280;5455;53.224;6.000;2024-02-26T10:08:56;100861.97;;;6.86;100.00
10806;BME280;5455;53.224;6.000;2024-02-26T10:11:27;100859.09;;;6.82;100.00
10806;BME280;5455;53.224;6.000;2024-02-26T10:13:54;100856.41;;;6.74;100.00
10806;BME280;5455;53.224;6.000;2024-02-26T10:16:21;100861.72;;;6.79;100.00
10806;BME280;5455;53.224;6.000;2024-02-26T10:18:50;100867.28;;;6.91;100.00
10806;BME280;5455;53.224;6.000;2024-02-26T10:21:26;100866.41;;;6.99;100.00
10806;BME280;5455;53.224;6.000;2024-02-26T10:23:53;100882.69;;;6.95;100.00
10806;BME280;5455;53.224;6.000;2024-02-26T10:26:21;100893.19;;;6.93;100.00
10806;BME280;5455;53.224;6.000;2024-02-26T10:28:49;100892.03;;;6.94;100.00
10806;BME280;5455;53.224;6.000;2024-02-26T10:31:21;100889.44;;;6.98;100.00
10806;BME280;5455;53.224;6.000;2024-02-26T10:33:48;100896.47;;;6.87;100.00
10806;BME280;5455;53.224;6.000;2024-02-26T10:36:16;100892.09;;;6.86;100.00
10806;BME280;5455;53.224;6.000;2024-02-26T10:38:43;100899.34;;;6.90;100.00
10806;BME280;5455;53.224;6.000;2024-02-26T10:41:13;100897.41;;;6.91;100.00
10806;BME280;5455;53.224;6.000;2024-02-26T10:43:42;100908.19;;;6.96;100.00
10806;BME280;5455;53.224;6.000;2024-02-26T10:46:10;100906.84;;;7.02;100.00
10806;BME280;5455;53.224;6.000;2024-02-26T10:48:37;100922.16;;;7.03;100.00
10806;BME280;5455;53.224;6.000;2024-02-26T10:51:04;100914.66;;;7.12;100.00
10806;BME280;5455;53.224;6.000;2024-02-26T10:53:33;100920.03;;;7.29;100.00
10806;BME280;5455;53.224;6.000;2024-02-26T10:56:03;100935.06;;;7.23;100.00
10806;BME280;5455;53.224;6.000;2024-02-26T10:58:32;100931.91;;;7.33;100.00
10806;BME280;5455;53.224;6.000;2024-02-26T11:35:47;100985.63;;;7.34;100.00
10806;BME280;5455;53.224;6.000;2024-02-26T11:38:21;100982.16;;;7.25;100.00
10806;BME280;5455;53.224;6.000;2024-02-26T11:40:48;100980.34;;;7.29;100.00
10806;BME280;5455;53.224;6.000;2024-02-26T11:43:14;100991.78;;;7.31;100.00
10806;BME280;5455;53.224;6.000;2024-02-26T11:48:16;100991.84;;;7.43;100.00
10806;BME280;5455;53.224;6.000;2024-02-26T11:50:47;100990.94;;;7.60;100.00
10806;BME280;5455;53.224;6.000;2024-02-26T11:53:22;100992.88;;;7.59;100.00
10806;BME280;5455;53.224;6.000;2024-02-26T11:56:12;101008.97;;;7.61;100.00
10806;BME280;5455;53.224;6.000;2024-02-26T11:58:40;100999.75;;;7.45;100.00
10806;BME280;5455;53.224;6.000;2024-02-26T12:04:04;101008.31;;;7.64;100.00
10806;BME280;5455;53.224;6.000;2024-02-26T12:06:53;100997.75;;;7.54;100.00
10806;BME280;5455;53.224;6.000;2024-02-26T12:09:31;100992.22;;;7.42;100.00
10806;BME280;5455;53.224;6.000;2024-02-26T12:12:01;101002.44;;;7.53;100.00
10806;BME280;5455;53.224;6.000;2024-02-26T12:14:28;100998.28;;;7.47;100.00
10806;BME280;5455;53.224;6.000;2024-02-26T12:16:56;101000.28;;;7.38;100.00
10806;BME280;5455;53.224;6.000;2024-02-26T12:19:25;101007.38;;;7.39;100.00
10806;BME280;5455;53.224;6.000;2024-02-26T12:21:52;101011.13;;;7.55;100.00
10806;BME280;5455;53.224;6.000;2024-02-26T12:24:22;101005.56;;;7.43;100.00
10806;BME280;5455;53.224;6.000;2024-02-26T12:26:49;101001.50;;;7.49;100.00
10806;BME280;5455;53.224;6.000;2024-02-26T12:29:16;101007.84;;;7.62;100.00
10806;BME280;5455;53.224;6.000;2024-02-26T12:31:43;101005.44;;;7.60;100.00
10806;BME280;5455;53.224;6.000;2024-02-26T12:34:10;101010.88;;;7.69;100.00
10806;BME280;5455;53.224;6.000;2024-02-26T12:36:38;101008.19;;;7.60;100.00
10806;BME280;5455;53.224;6.000;2024-02-26T12:39:07;101017.22;;;7.61;100.00
10806;BME280;5455;53.224;6.000;2024-02-26T12:41:34;101016.28;;;7.57;100.00
10806;BME280;5455;53.224;6.000;2024-02-26T12:44:01;101014.75;;;7.47;100.00
10806;BME280;5455;53.224;6.000;2024-02-26T12:46:28;101007.94;;;7.53;100.00
10806;BME280;5455;53.224;6.000;2024-02-26T12:48:56;101015.56;;;7.68;100.00
10806;BME280;5455;53.224;6.000;2024-02-26T12:51:26;101028.06;;;7.57;100.00
10806;BME280;5455;53.224;6.000;2024-02-26T12:53:55;101017.28;;;7.32;100.00
10806;BME280;5455;53.224;6.000;2024-02-26T12:56:22;101025.44;;;7.40;100.00
10806;BME280;5455;53.224;6.000;2024-02-26T12:58:51;101027.44;;;7.31;100.00
10806;BME280;5455;53.224;6.000;2024-02-26T13:01:22;101032.41;;;7.08;100.00
10806;BME280;5455;53.224;6.000;2024-02-26T13:03:51;101037.66;;;7.22;100.00
10806;BME280;5455;53.224;6.000;2024-02-26T13:06:19;101040.56;;;6.96;100.00
10806;BME280;5455;53.224;6.000;2024-02-26T13:08:49;101053.16;;;6.89;100.00
10806;BME280;5455;53.224;6.000;2024-02-26T13:11:16;101056.72;;;6.81;100.00
10806;BME280;5455;53.224;6.000;2024-02-26T13:13:47;101052.56;;;6.75;100.00
10806;BME280;5455;53.224;6.000;2024-02-26T13:16:15;101049.88;;;6.66;100.00
10806;BME280;5455;53.224;6.000;2024-02-26T13:18:46;101052.91;;;6.64;100.00
10806;BME280;5455;53.224;6.000;2024-02-26T13:21:14;101051.09;;;6.77;100.00
10806;BME280;5455;53.224;6.000;2024-02-26T13:23:42;101059.00;;;6.70;100.00
10806;BME280;5455;53.224;6.000;2024-02-26T13:26:12;101060.47;;;6.68;100.00
10806;BME280;5455;53.224;6.000;2024-02-26T13:28:40;101068.19;;;6.74;100.00
10806;BME280;5455;53.224;6.000;2024-02-26T13:31:08;101076.38;;;6.83;100.00
10806;BME280;5455;53.224;6.000;2024-02-26T13:33:35;101076.72;;;6.81;100.00
10806;BME280;5455;53.224;6.000;2024-02-26T13:36:02;101079.47;;;6.81;100.00
10806;BME280;5455;53.224;6.000;2024-02-26T13:38:30;101086.41;;;6.79;100.00
10806;BME280;5455;53.224;6.000;2024-02-26T13:40:57;101090.38;;;6.90;100.00
10806;BME280;5455;53.224;6.000;2024-02-26T13:43:24;101089.53;;;6.98;100.00